^^
Meteo Knjazevac Station Historical Data
Daily Summary for June 21, 2022 Units:  Both    English   Metric
Daily Weekly Monthly Yearly Custom
  High: Low: Average:
Temperature: 77.7 °F /  25.4 °C 56.3 °F /  13.5 °C 62.4 °F /  16.9 °C
Dew Point: 66.7 °F /  19.3 °C 53.7 °F /  12.1 °C 57.7 °F /  14.3 °C
Humidity: 93% 68% 85%
Wind Speed: 9mph /  14.5km/h - 2.1mph /  3.4km/h
Wind Gust: 14mph /  22.5km/h - -
Wind- - SW
Pressure: 29.95 in /  1014.1 hPa 29.92 in /  1013.1 hPa -
Precipitation: 0.01 in /  0.25 mm    
Historical Graphs
 
 
Tabular Data for June 21, 2022
Time Temperature Dew Point Pressure Wind Wind Speed Wind Gust Humidity Rainfall Rate (Hourly) solar Conditions
00:00 62.2 °F /  16.8 °C 57.3 °F /  14.1 °C 29.93in /  1013.4hPa WNW 3mph /  4.8km/h 5mph /  8km/h 84% 0.00in /  0mm 0 W/m2
00:10 62.1 °F /  16.7 °C 57.2 °F /  14 °C 29.93in /  1013.4hPa West 1mph /  1.6km/h 4mph /  6.4km/h 84% 0.00in /  0mm 0 W/m2
00:20 61.8 °F /  16.6 °C 56.9 °F /  13.8 °C 29.94in /  1013.8hPa Calm   2mph /  3.2km/h 84% 0.00in /  0mm 0 W/m2
00:30 61.5 °F /  16.4 °C 56.6 °F /  13.7 °C 29.93in /  1013.4hPa Calm   2mph /  3.2km/h 84% 0.00in /  0mm 0 W/m2
00:40 61.3 °F /  16.3 °C 56.8 °F /  13.8 °C 29.94in /  1013.8hPa WNW 1mph /  1.6km/h 3mph /  4.8km/h 85% 0.00in /  0mm 0 W/m2
00:50 61 °F /  16.1 °C 56.4 °F /  13.6 °C 29.93in /  1013.4hPa Calm   2mph /  3.2km/h 85% 0.00in /  0mm 0 W/m2
01:00 60.3 °F /  15.7 °C 56.1 °F /  13.4 °C 29.93in /  1013.4hPa West 1mph /  1.6km/h 4mph /  6.4km/h 86% 0.00in /  0mm 0 W/m2
01:10 59.8 °F /  15.4 °C 55.6 °F /  13.1 °C 29.93in /  1013.4hPa NW 1mph /  1.6km/h 3mph /  4.8km/h 86% 0.00in /  0mm 0 W/m2
01:20 59.5 °F /  15.3 °C 56 °F /  13.3 °C 29.93in /  1013.4hPa WNW 1mph /  1.6km/h 6mph /  9.7km/h 88% 0.00in /  0mm 0 W/m2
01:30 59.4 °F /  15.2 °C 55.8 °F /  13.2 °C 29.93in /  1013.4hPa WNW 1mph /  1.6km/h 6mph /  9.7km/h 88% 0.00in /  0mm 0 W/m2
01:40 59 °F /  15 °C 55.4 °F /  13 °C 29.94in /  1013.8hPa West 2mph /  3.2km/h 4mph /  6.4km/h 88% 0.00in /  0mm 0 W/m2
01:50 58.8 °F /  14.9 °C 55.6 °F /  13.1 °C 29.93in /  1013.4hPa West 2mph /  3.2km/h 4mph /  6.4km/h 89% 0.00in /  0mm 0 W/m2
02:00 58.5 °F /  14.7 °C 55.2 °F /  12.9 °C 29.93in /  1013.4hPa West 1mph /  1.6km/h 4mph /  6.4km/h 89% 0.00in /  0mm 0 W/m2
02:10 58.1 °F /  14.5 °C 54.9 °F /  12.7 °C 29.94in /  1013.8hPa WNW 2mph /  3.2km/h 5mph /  8km/h 89% 0.00in /  0mm 0 W/m2
02:20 57.9 °F /  14.4 °C 55 °F /  12.8 °C 29.94in /  1013.8hPa WNW 2mph /  3.2km/h 3mph /  4.8km/h 90% 0.00in /  0mm 0 W/m2
02:30 57.7 °F /  14.3 °C 54.8 °F /  12.7 °C 29.94in /  1013.8hPa Calm   3mph /  4.8km/h 90% 0.00in /  0mm 0 W/m2
02:40 57.6 °F /  14.2 °C 54.6 °F /  12.6 °C 29.94in /  1013.8hPa Calm   3mph /  4.8km/h 90% 0.00in /  0mm 0 W/m2
02:50 57.2 °F /  14 °C 54.3 °F /  12.4 °C 29.94in /  1013.8hPa West 2mph /  3.2km/h 4mph /  6.4km/h 90% 0.00in /  0mm 0 W/m2
03:00 57 °F /  13.9 °C 54.4 °F /  12.4 °C 29.94in /  1013.8hPa West 2mph /  3.2km/h 5mph /  8km/h 91% 0.00in /  0mm 0 W/m2
03:10 57 °F /  13.9 °C 54.4 °F /  12.4 °C 29.94in /  1013.8hPa West 1mph /  1.6km/h 4mph /  6.4km/h 91% 0.00in /  0mm 0 W/m2
03:20 56.8 °F /  13.8 °C 53.9 °F /  12.2 °C 29.94in /  1013.8hPa WNW 1mph /  1.6km/h 3mph /  4.8km/h 90% 0.00in /  0mm 0 W/m2
03:30 56.7 °F /  13.7 °C 54.1 °F /  12.3 °C 29.94in /  1013.8hPa NW 1mph /  1.6km/h 3mph /  4.8km/h 91% 0.00in /  0mm 0 W/m2
03:40 56.8 °F /  13.8 °C 54.8 °F /  12.7 °C 29.94in /  1013.8hPa NNW 1mph /  1.6km/h 4mph /  6.4km/h 93% 0.00in /  0mm 0 W/m2
03:50 56.8 °F /  13.8 °C 54.8 °F /  12.7 °C 29.94in /  1013.8hPa WNW 2mph /  3.2km/h 5mph /  8km/h 93% 0.00in /  0mm 0 W/m2
04:00 56.9 °F /  13.8 °C 54.3 °F /  12.4 °C 29.93in /  1013.4hPa Calm   3mph /  4.8km/h 91% 0.00in /  0mm 0 W/m2
04:10 56.7 °F /  13.7 °C 54.1 °F /  12.3 °C 29.93in /  1013.4hPa Calm   3mph /  4.8km/h 91% 0.00in /  0mm 0 W/m2
04:20 56.5 °F /  13.6 °C 53.9 °F /  12.2 °C 29.93in /  1013.4hPa NW 1mph /  1.6km/h 2mph /  3.2km/h 91% 0.00in /  0mm 0 W/m2
04:30 56.3 °F /  13.5 °C 53.7 °F /  12.1 °C 29.93in /  1013.4hPa NW 1mph /  1.6km/h 3mph /  4.8km/h 91% 0.00in /  0mm 0 W/m2
04:40 56.3 °F /  13.5 °C 53.7 °F /  12.1 °C 29.93in /  1013.4hPa NW 1mph /  1.6km/h 2mph /  3.2km/h 91% 0.00in /  0mm 0 W/m2
04:50 56.3 °F /  13.5 °C 54.3 °F /  12.4 °C 29.93in /  1013.4hPa Calm   2mph /  3.2km/h 93% 0.00in /  0mm 4 W/m2
05:00 56.3 °F /  13.5 °C 54.3 °F /  12.4 °C 29.93in /  1013.4hPa Calm   3mph /  4.8km/h 93% 0.00in /  0mm 9 W/m2
05:10 56.7 °F /  13.7 °C 54.7 °F /  12.6 °C 29.93in /  1013.4hPa North 2mph /  3.2km/h 4mph /  6.4km/h 93% 0.00in /  0mm 15 W/m2
05:20 56.8 °F /  13.8 °C 54.2 °F /  12.3 °C 29.93in /  1013.4hPa SSW 2mph /  3.2km/h 6mph /  9.7km/h 91% 0.00in /  0mm 24 W/m2
05:30 57 °F /  13.9 °C 54.4 °F /  12.4 °C 29.92in /  1013.1hPa SSW 2mph /  3.2km/h 6mph /  9.7km/h 91% 0.00in /  0mm 32 W/m2
05:40 57.4 °F /  14.1 °C 54.8 °F /  12.7 °C 29.92in /  1013.1hPa WSW 1mph /  1.6km/h 6mph /  9.7km/h 91% 0.00in /  0mm 39 W/m2
05:50 57.4 °F /  14.1 °C 54.8 °F /  12.7 °C 29.93in /  1013.4hPa WNW 1mph /  1.6km/h 5mph /  8km/h 91% 0.00in /  0mm 72 W/m2
06:00 57.6 °F /  14.2 °C 55 °F /  12.8 °C 29.93in /  1013.4hPa NNW 1mph /  1.6km/h 4mph /  6.4km/h 91% 0.00in /  0mm 87 W/m2
06:10 57.7 °F /  14.3 °C 55.7 °F /  13.2 °C 29.93in /  1013.4hPa NNW 1mph /  1.6km/h 3mph /  4.8km/h 93% 0.00in /  0mm 107 W/m2
06:20 58.4 °F /  14.7 °C 56.4 °F /  13.6 °C 29.93in /  1013.4hPa NW 1mph /  1.6km/h 3mph /  4.8km/h 93% 0.00in /  0mm 133 W/m2
06:30 59.2 °F /  15.1 °C 56.6 °F /  13.7 °C 29.93in /  1013.4hPa NNW 1mph /  1.6km/h 3mph /  4.8km/h 91% 0.00in /  0mm 113 W/m2
06:40 60.1 °F /  15.6 °C 57.4 °F /  14.1 °C 29.93in /  1013.4hPa NNE 2mph /  3.2km/h 5mph /  8km/h 91% 0.00in /  0mm 181 W/m2
06:50 61 °F /  16.1 °C 58 °F /  14.4 °C 29.94in /  1013.8hPa East 1mph /  1.6km/h 5mph /  8km/h 90% 0.00in /  0mm 213 W/m2
07:00 62 °F /  16.7 °C 58.4 °F /  14.7 °C 29.94in /  1013.8hPa NE 3mph /  4.8km/h 5mph /  8km/h 88% 0.00in /  0mm 210 W/m2
07:10 63.1 °F /  17.3 °C 58.9 °F /  14.9 °C 29.94in /  1013.8hPa Calm   5mph /  8km/h 86% 0.00in /  0mm 281 W/m2
07:20 64.4 °F /  18 °C 59.8 °F /  15.4 °C 29.94in /  1013.8hPa SE 1mph /  1.6km/h 4mph /  6.4km/h 85% 0.00in /  0mm 301 W/m2
07:30 65.1 °F /  18.4 °C 60.2 °F /  15.7 °C 29.94in /  1013.8hPa East 1mph /  1.6km/h 4mph /  6.4km/h 84% 0.00in /  0mm 342 W/m2
07:40 66.5 °F /  19.2 °C 60.5 °F /  15.8 °C 29.94in /  1013.8hPa ESE 2mph /  3.2km/h 7mph /  11.3km/h 81% 0.00in /  0mm 185 W/m2
07:50 67.6 °F /  19.8 °C 61.2 °F /  16.2 °C 29.94in /  1013.8hPa ESE 2mph /  3.2km/h 5mph /  8km/h 80% 0.00in /  0mm 341 W/m2
08:00 68.5 °F /  20.3 °C 61.7 °F /  16.5 °C 29.94in /  1013.8hPa ENE 2mph /  3.2km/h 6mph /  9.7km/h 79% 0.00in /  0mm 277 W/m2
08:10 69.4 °F /  20.8 °C 62.6 °F /  17 °C 29.94in /  1013.8hPa SSE 1mph /  1.6km/h 5mph /  8km/h 79% 0.00in /  0mm 478 W/m2
08:20 71.4 °F /  21.9 °C 63.8 °F /  17.7 °C 29.94in /  1013.8hPa SSW 3mph /  4.8km/h 6mph /  9.7km/h 77% 0.00in /  0mm 480 W/m2
08:30 73.4 °F /  23 °C 64.6 °F /  18.1 °C 29.94in /  1013.8hPa SSW 5mph /  8km/h 7mph /  11.3km/h 74% 0.00in /  0mm 509 W/m2
08:40 74.8 °F /  23.8 °C 64.4 °F /  18 °C 29.94in /  1013.8hPa South 7mph /  11.3km/h 10mph /  16.1km/h 70% 0.00in /  0mm 393 W/m2
08:50 75.4 °F /  24.1 °C 64.9 °F /  18.3 °C 29.94in /  1013.8hPa SSW 5mph /  8km/h 10mph /  16.1km/h 70% 0.00in /  0mm 187 W/m2
09:00 75.5 °F /  24.2 °C 65.1 °F /  18.4 °C 29.94in /  1013.8hPa SSW 6mph /  9.7km/h 7mph /  11.3km/h 70% 0.00in /  0mm 396 W/m2
09:10 75.9 °F /  24.4 °C 65 °F /  18.3 °C 29.94in /  1013.8hPa SW 6mph /  9.7km/h 10mph /  16.1km/h 69% 0.00in /  0mm 141 W/m2
09:20 76.1 °F /  24.5 °C 65.2 °F /  18.4 °C 29.95in /  1014.1hPa WSW 8mph /  12.9km/h 13mph /  20.9km/h 69% 0.00in /  0mm 131 W/m2
09:30 76.3 °F /  24.6 °C 64.9 °F /  18.3 °C 29.94in /  1013.8hPa WSW 8mph /  12.9km/h 13mph /  20.9km/h 68% 0.00in /  0mm 176 W/m2
09:40 76.8 °F /  24.9 °C 65.5 °F /  18.6 °C 29.94in /  1013.8hPa WSW 9mph /  14.5km/h 14mph /  22.5km/h 68% 0.01in /  0.25mm 222 W/m2
09:50 77.2 °F /  25.1 °C 65.8 °F /  18.8 °C 29.95in /  1014.1hPa WSW 6mph /  9.7km/h 10mph /  16.1km/h 68% 0.00in /  0mm 218 W/m2
10:00 77.7 °F /  25.4 °C 66.7 °F /  19.3 °C 29.95in /  1014.1hPa WSW 6mph /  9.7km/h 12mph /  19.3km/h 69% 0.00in /  0mm 809 W/m2
Knjazevac, Serbia
Compliments of Weather Underground - 2 mb